createdAt,value
2022-11-10T00:01:11.426Z,99854.19
2022-11-10T00:03:58.919Z,99859.16
2022-11-10T00:06:46.606Z,99870.97
2022-11-10T00:09:32.357Z,99873.50
2022-11-10T00:12:17.955Z,99875.06
2022-11-10T00:15:22.678Z,99870.97
2022-11-10T00:18:08.534Z,99876.03
2022-11-10T00:20:54.174Z,99881.44
2022-11-10T00:23:39.871Z,99878.72
2022-11-10T00:26:25.762Z,99889.41
2022-11-10T00:29:11.278Z,99880.59
2022-11-10T00:31:57.214Z,99880.88
2022-11-10T00:34:42.614Z,99888.13
2022-11-10T00:37:28.433Z,99884.88
2022-11-10T00:40:13.989Z,99876.94
2022-11-10T00:42:59.445Z,99887.72
2022-11-10T00:45:46.697Z,99873.22
2022-11-10T00:48:32.165Z,99876.47
2022-11-10T00:51:17.945Z,99878.03
2022-11-10T00:54:03.853Z,99879.19
2022-11-10T00:56:49.400Z,99880.19
2022-11-10T00:59:34.993Z,99870.78
2022-11-10T01:02:20.824Z,99869.09
2022-11-10T01:05:06.543Z,99866.25
2022-11-10T01:07:52.113Z,99876.34
2022-11-10T01:10:37.628Z,99870.66
2022-11-10T01:13:23.602Z,99868.09
2022-11-10T01:16:11.080Z,99862.25
2022-11-10T01:19:01.627Z,99869.50
2022-11-10T01:21:47.217Z,99869.78
2022-11-10T01:24:33.067Z,99875.47
2022-11-10T01:27:18.620Z,99867.81
2022-11-10T01:30:04.732Z,99868.94
2022-11-10T01:32:50.604Z,99867.09
2022-11-10T01:35:36.291Z,99883.28
2022-11-10T01:38:22.066Z,99869.66
2022-11-10T01:41:08.388Z,99877.03
2022-11-10T01:43:54.271Z,99880.28
2022-11-10T01:46:40.110Z,99877.78
2022-11-10T01:49:26.248Z,99878.03
2022-11-10T01:52:12.565Z,99873.50
2022-11-10T01:54:58.617Z,99873.06
2022-11-10T01:57:44.385Z,99879.19
2022-11-10T02:00:30.109Z,99883.28
2022-11-10T02:03:34.428Z,99876.94
2022-11-10T02:06:20.540Z,99885.88
2022-11-10T02:09:06.260Z,99883.28
2022-11-10T02:11:52.066Z,99895.78
2022-11-10T02:14:37.965Z,99888.28
2022-11-10T02:17:23.579Z,99892.94
2022-11-10T02:20:10.331Z,99901.75
2022-11-10T02:22:55.956Z,99903.63
2022-11-10T02:25:41.764Z,99903.31
2022-11-10T02:28:27.649Z,99899.75
2022-11-10T02:31:13.362Z,99902.44
2022-11-10T02:33:58.761Z,99907.56
2022-11-10T02:36:44.608Z,99908.00
2022-11-10T02:39:30.463Z,99910.13
2022-11-10T02:42:16.143Z,99905.72
2022-11-10T02:45:02.004Z,99912.66
2022-11-10T02:47:47.596Z,99909.44
2022-11-10T02:50:33.388Z,99909.84
2022-11-10T02:53:19.583Z,99912.56
2022-11-10T02:56:05.728Z,99912.97
2022-11-10T02:58:51.665Z,99921.22
2022-11-10T03:01:37.534Z,99927.16
2022-11-10T03:04:23.532Z,99925.75
2022-11-10T03:07:09.398Z,99938.56
2022-11-10T03:09:55.380Z,99939.56
2022-11-10T03:12:41.096Z,99942.81
2022-11-10T03:15:26.887Z,99946.66
2022-11-10T03:18:12.381Z,99946.34
2022-11-10T03:20:57.935Z,99945.34
2022-11-10T03:23:43.954Z,99955.13
2022-11-10T03:26:29.638Z,99953.00
2022-11-10T03:29:15.680Z,99954.09
2022-11-10T03:32:01.467Z,99950.69
2022-11-10T03:34:47.252Z,99946.44
2022-11-10T03:37:32.793Z,99951.16
2022-11-10T03:40:18.741Z,99957.38
2022-11-10T03:43:04.598Z,99955.97
2022-11-10T03:45:50.650Z,99960.94
2022-11-10T03:48:36.290Z,99962.06
2022-11-10T03:51:22.399Z,99971.44
2022-11-10T03:54:08.083Z,99964.69
2022-11-10T03:56:54.457Z,99965.16
2022-11-10T03:59:40.139Z,99969.69
2022-11-10T04:02:25.944Z,99976.34
2022-11-10T04:05:30.031Z,99975.44
2022-11-10T04:08:35.070Z,99979.13
2022-11-10T04:11:39.691Z,99989.50
2022-11-10T04:14:44.276Z,99987.66
2022-11-10T04:17:31.351Z,99991.09
2022-11-10T04:20:17.024Z,99991.91
2022-11-10T04:23:21.645Z,99997.97
2022-11-10T04:26:29.217Z,99997.69
2022-11-10T04:29:15.853Z,99998.50
2022-11-10T04:32:01.695Z,99998.81
2022-11-10T04:34:47.372Z,99994.41
2022-11-10T04:37:32.982Z,99990.03
2022-11-10T04:40:18.832Z,99995.50
2022-11-10T04:43:04.253Z,99993.78
2022-11-10T04:45:49.931Z,99997.38
2022-11-10T04:48:35.655Z,100002.47
2022-11-10T04:51:22.305Z,100005.16
2022-11-10T04:54:08.466Z,100006.97
2022-11-10T04:56:54.166Z,100013.63
2022-11-10T04:59:39.924Z,100019.13
2022-11-10T05:02:25.625Z,100030.50
2022-11-10T05:05:11.721Z,100031.09
2022-11-10T05:07:57.712Z,100043.13
2022-11-10T05:10:43.525Z,100038.22
2022-11-10T05:13:29.249Z,100036.19
2022-11-10T05:16:15.047Z,100037.66
2022-11-10T05:19:00.845Z,100037.63
2022-11-10T05:21:46.392Z,100044.41
2022-11-10T05:24:32.106Z,100051.38
2022-11-10T05:27:17.758Z,100042.12
2022-11-10T05:30:03.992Z,100051.44
2022-11-10T05:32:49.628Z,100051.31
2022-11-10T05:35:35.840Z,100058.59
2022-11-10T05:38:21.745Z,100057.06
2022-11-10T05:41:07.592Z,100061.50
2022-11-10T05:43:53.260Z,100062.50
2022-11-10T05:46:39.011Z,100072.22
2022-11-10T05:49:24.460Z,100072.66
2022-11-10T05:52:10.229Z,100082.62
2022-11-10T05:54:55.883Z,100092.38
2022-11-10T05:57:42.292Z,100085.66
2022-11-10T06:00:28.819Z,100090.88
2022-11-10T06:03:18.170Z,100099.06
2022-11-10T06:06:04.556Z,100100.22
2022-11-10T06:08:50.540Z,100108.72
2022-11-10T06:11:36.068Z,100114.72
2022-11-10T06:14:21.986Z,100109.75
2022-11-10T06:17:07.335Z,100121.66
2022-11-10T06:19:53.214Z,100129.31
2022-11-10T06:22:39.117Z,100135.97
2022-11-10T06:25:24.840Z,100140.88
2022-11-10T06:28:11.071Z,100143.47
2022-11-10T06:30:57.056Z,100144.91
2022-11-10T06:33:42.901Z,100148.31
2022-11-10T06:36:28.775Z,100145.81
2022-11-10T06:39:14.527Z,100156.22
2022-11-10T06:42:00.385Z,100151.00
2022-11-10T06:44:46.112Z,100159.97
2022-11-10T06:47:31.941Z,100154.47
2022-11-10T06:50:17.947Z,100171.91
2022-11-10T06:53:03.954Z,100179.50
2022-11-10T06:55:50.376Z,100180.78
2022-11-10T06:58:35.940Z,100191.50
2022-11-10T07:01:26.229Z,100190.69
2022-11-10T07:04:20.935Z,100196.03
2022-11-10T07:07:06.744Z,100196.78
2022-11-10T07:09:52.646Z,100201.19
2022-11-10T07:12:38.461Z,100202.47
2022-11-10T07:15:23.871Z,100212.00
2022-11-10T07:18:09.905Z,100216.16
2022-11-10T07:20:55.698Z,100212.47
2022-11-10T07:23:42.109Z,100212.53
2022-11-10T07:26:28.041Z,100220.81
2022-11-10T07:29:13.516Z,100218.81
2022-11-10T07:31:59.587Z,100223.84
2022-11-10T07:34:45.352Z,100225.75
2022-11-10T07:37:31.169Z,100225.31
2022-11-10T07:40:17.190Z,100224.69
2022-11-10T07:43:03.029Z,100233.97
2022-11-10T07:45:49.438Z,100243.28
2022-11-10T07:48:35.237Z,100242.09
2022-11-10T07:51:20.943Z,100246.59
2022-11-10T07:54:06.899Z,100246.78
2022-11-10T07:56:52.570Z,100251.78
2022-11-10T07:59:38.388Z,100249.69
2022-11-10T08:02:24.260Z,100248.31
2022-11-10T08:05:10.137Z,100246.28
2022-11-10T08:07:55.807Z,100249.84
2022-11-10T08:10:41.565Z,100262.56
2022-11-10T08:13:27.024Z,100267.53
2022-11-10T08:16:12.928Z,100274.22
2022-11-10T08:18:58.745Z,100278.47
2022-11-10T08:21:44.624Z,100277.16
2022-11-10T08:24:30.313Z,100282.47
2022-11-10T08:27:16.046Z,100278.81
2022-11-10T08:30:01.921Z,100269.72
2022-11-10T08:32:47.653Z,100270.03
2022-11-10T08:35:35.310Z,100278.28
2022-11-10T08:38:21.883Z,100285.31
2022-11-10T08:41:07.718Z,100291.78
2022-11-10T08:43:53.651Z,100296.88
2022-11-10T08:46:39.684Z,100308.53
2022-11-10T08:49:25.007Z,100320.78
2022-11-10T08:52:11.235Z,100323.09
2022-11-10T08:54:56.994Z,100326.41
2022-11-10T08:57:43.052Z,100337.88
2022-11-10T09:00:29.214Z,100346.31
2022-11-10T09:03:19.268Z,100345.06
2022-11-10T09:06:05.473Z,100343.84
2022-11-10T09:08:51.374Z,100339.22
2022-11-10T09:11:37.102Z,100337.69
2022-11-10T09:14:23.084Z,100342.22
2022-11-10T09:17:08.682Z,100349.66
2022-11-10T09:19:54.557Z,100356.00
2022-11-10T09:22:40.265Z,100363.00
2022-11-10T09:25:26.105Z,100358.09
2022-11-10T09:28:12.487Z,100363.72
2022-11-10T09:30:58.057Z,100360.31
2022-11-10T09:33:43.771Z,100368.28
2022-11-10T09:36:29.699Z,100365.06
2022-11-10T09:39:15.633Z,100367.25
2022-11-10T09:42:01.391Z,100372.66
2022-11-10T09:44:52.131Z,100371.69
2022-11-10T09:47:58.498Z,100379.41
2022-11-10T09:50:47.892Z,100378.66
2022-11-10T09:53:36.785Z,100382.56
2022-11-10T09:56:27.796Z,100391.72
2022-11-10T09:59:16.675Z,100389.16
2022-11-10T10:02:11.796Z,100392.06
2022-11-10T10:05:16.247Z,100396.63
2022-11-10T10:08:01.775Z,100412.19
2022-11-10T10:10:49.367Z,100405.06
2022-11-10T10:13:54.037Z,100411.69
2022-11-10T10:16:58.185Z,100411.78
2022-11-10T10:19:51.072Z,100405.59
2022-11-10T10:22:42.515Z,100414.50
2022-11-10T10:25:28.083Z,100409.75
2022-11-10T10:28:20.546Z,100406.56
2022-11-10T10:31:24.914Z,100411.31
2022-11-10T10:34:17.945Z,100405.50
2022-11-10T10:37:03.438Z,100410.37
2022-11-10T10:39:49.625Z,100405.94
2022-11-10T10:42:36.364Z,100416.84
2022-11-10T10:45:25.042Z,100419.91
2022-11-10T10:48:27.348Z,100412.53
2022-11-10T10:51:29.281Z,100418.72
2022-11-10T10:54:27.018Z,100419.50
2022-11-10T10:57:38.852Z,100410.37
2022-11-10T11:00:25.190Z,100414.66
2022-11-10T11:03:19.984Z,100421.97
2022-11-10T11:06:06.872Z,100417.59
2022-11-10T11:08:59.492Z,100428.34
2022-11-10T11:11:46.190Z,100428.62
2022-11-10T11:14:32.550Z,100429.25
2022-11-10T11:17:19.387Z,100437.66
2022-11-10T11:20:09.371Z,100443.94
2022-11-10T11:23:00.336Z,100446.28
2022-11-10T11:25:46.281Z,100444.28
2022-11-10T11:28:58.238Z,100437.13
2022-11-10T11:31:51.087Z,100437.25
2022-11-10T11:34:55.006Z,100440.87
2022-11-10T11:37:52.842Z,100444.06
2022-11-10T11:40:56.906Z,100452.34
2022-11-10T11:44:01.110Z,100453.97
2022-11-10T11:46:50.891Z,100451.31
2022-11-10T11:49:41.197Z,100449.47
2022-11-10T11:52:37.973Z,100457.13
2022-11-10T11:55:26.300Z,100458.63
2022-11-10T11:58:25.450Z,100456.53
2022-11-10T12:01:20.272Z,100459.19
2022-11-10T12:04:14.923Z,100455.97
2022-11-10T12:07:29.846Z,100453.50
2022-11-10T12:10:43.286Z,100463.81
2022-11-10T12:13:30.172Z,100466.56
2022-11-10T12:16:15.954Z,100462.03
2022-11-10T12:19:08.102Z,100461.78
2022-11-10T12:21:56.504Z,100475.28
2022-11-10T12:24:53.605Z,100475.03
2022-11-10T12:27:43.475Z,100473.97
2022-11-10T12:30:29.031Z,100475.47
2022-11-10T12:33:18.124Z,100477.31
2022-11-10T12:36:05.680Z,100486.78
2022-11-10T12:38:59.618Z,100496.75
2022-11-10T12:41:47.124Z,100499.16
2022-11-10T12:44:35.402Z,100498.41
2022-11-10T12:47:20.931Z,100489.22
2022-11-10T12:50:14.778Z,100496.75
2022-11-10T12:53:06.694Z,100500.44
2022-11-10T12:56:00.169Z,100508.59
2022-11-10T12:58:45.640Z,100500.94
2022-11-10T13:01:31.441Z,100496.56
2022-11-10T13:04:17.564Z,100504.38
2022-11-10T13:07:06.440Z,100505.63
2022-11-10T13:09:54.989Z,100511.53
2022-11-10T13:12:53.558Z,100508.16
2022-11-10T13:15:39.304Z,100508.28
2022-11-10T13:18:31.442Z,100515.41
2022-11-10T13:21:17.456Z,100515.91
2022-11-10T13:24:03.282Z,100522.13
2022-11-10T13:26:55.498Z,100515.28
2022-11-10T13:29:47.297Z,100518.63
2022-11-10T13:32:36.118Z,100527.44
2022-11-10T13:35:28.141Z,100529.69
2022-11-10T13:38:32.105Z,100529.41
2022-11-10T13:41:18.322Z,100541.53
2022-11-10T13:44:20.398Z,100524.75
2022-11-10T13:47:09.428Z,100539.31
2022-11-10T13:50:13.589Z,100533.00
2022-11-10T13:52:59.111Z,100544.47
2022-11-10T13:55:52.455Z,100547.28
2022-11-10T13:58:40.329Z,100545.56
2022-11-10T14:01:28.160Z,100550.47
2022-11-10T14:04:34.932Z,100547.28
2022-11-10T14:07:20.818Z,100552.56
2022-11-10T14:10:29.764Z,100547.19
2022-11-10T14:13:19.528Z,100556.09
2022-11-10T14:16:12.246Z,100564.31
2022-11-10T14:19:00.197Z,100566.63
2022-11-10T14:21:54.006Z,100563.22
2022-11-10T14:24:51.837Z,100567.69
2022-11-10T14:27:37.531Z,100565.06
2022-11-10T14:30:26.945Z,100575.81
2022-11-10T14:33:13.272Z,100590.97
2022-11-10T14:36:00.357Z,100580.25
2022-11-10T14:38:46.011Z,100586.84
2022-11-10T14:41:31.444Z,100589.81
2022-11-10T14:44:21.311Z,100585.87
2022-11-10T14:47:13.911Z,100596.41
2022-11-10T14:50:14.991Z,100587.34
2022-11-10T14:53:24.026Z,100592.50
2022-11-10T14:56:16.936Z,100601.44
2022-11-10T14:59:06.004Z,100602.66
2022-11-10T15:01:54.799Z,100605.22
2022-11-10T15:04:43.955Z,100608.66
2022-11-10T15:07:31.781Z,100615.41
2022-11-10T15:10:17.478Z,100618.84
2022-11-10T15:13:07.120Z,100614.19
2022-11-10T15:15:53.745Z,100614.66
2022-11-10T15:18:39.569Z,100619.47
2022-11-10T15:21:28.012Z,100624.09
2022-11-10T15:24:13.574Z,100628.22
2022-11-10T15:26:59.448Z,100630.13
2022-11-10T15:29:44.944Z,100634.81
2022-11-10T15:32:50.663Z,100635.56
2022-11-10T15:35:36.413Z,100645.06
2022-11-10T15:38:25.195Z,100644.09
2022-11-10T15:41:12.266Z,100651.31
2022-11-10T15:43:57.893Z,100650.59
2022-11-10T15:46:44.408Z,100654.91
2022-11-10T15:49:35.496Z,100660.41
2022-11-10T15:52:21.506Z,100663.31
2022-11-10T15:55:18.786Z,100658.72
2022-11-10T15:58:05.911Z,100663.25
2022-11-10T16:00:51.556Z,100660.09
2022-11-10T16:03:37.128Z,100669.03
2022-11-10T16:06:22.702Z,100671.34
2022-11-10T16:09:10.551Z,100674.50
2022-11-10T16:11:56.399Z,100679.19
2022-11-10T16:14:42.309Z,100666.41
2022-11-10T16:17:28.395Z,100679.94
2022-11-10T16:20:14.873Z,100690.06
2022-11-10T16:23:00.746Z,100694.19
2022-11-10T16:25:46.944Z,100697.19
2022-11-10T16:28:32.611Z,100705.59
2022-11-10T16:31:19.303Z,100705.69
2022-11-10T16:34:04.995Z,100713.88
2022-11-10T16:36:51.271Z,100717.09
2022-11-10T16:39:37.099Z,100712.41
2022-11-10T16:42:22.895Z,100716.31
2022-11-10T16:45:18.910Z,100721.78
2022-11-10T16:48:04.738Z,100722.59
2022-11-10T16:50:52.504Z,100723.34
2022-11-10T16:53:38.529Z,100733.28
2022-11-10T16:56:24.278Z,100731.69
2022-11-10T16:59:10.709Z,100741.72
2022-11-10T17:01:57.260Z,100742.75
2022-11-10T17:04:43.319Z,100744.66
2022-11-10T17:07:29.068Z,100747.72
2022-11-10T17:10:15.924Z,100761.88
2022-11-10T17:13:02.095Z,100776.66
2022-11-10T17:15:48.097Z,100782.66
2022-11-10T17:18:34.026Z,100789.66
2022-11-10T17:21:20.342Z,100785.87
2022-11-10T17:24:06.444Z,100799.81
2022-11-10T17:26:52.403Z,100798.97
2022-11-10T17:29:38.114Z,100806.44
2022-11-10T17:32:43.193Z,100811.25
2022-11-10T17:35:29.664Z,100815.00
2022-11-10T17:38:17.541Z,100811.00
2022-11-10T17:41:03.399Z,100820.13
2022-11-10T17:43:48.862Z,100819.06
2022-11-10T17:46:34.793Z,100823.19
2022-11-10T17:49:20.686Z,100828.62
2022-11-10T17:52:06.506Z,100834.53
2022-11-10T17:54:52.347Z,100835.34
2022-11-10T17:57:38.189Z,100841.84
2022-11-10T18:00:25.344Z,100838.97
2022-11-10T18:03:14.819Z,100838.88
2022-11-10T18:06:00.766Z,100856.00
2022-11-10T18:08:47.166Z,100856.25
2022-11-10T18:11:33.637Z,100847.75
2022-11-10T18:14:19.554Z,100848.41
2022-11-10T18:17:05.262Z,100850.06
2022-11-10T18:19:51.178Z,100845.72
2022-11-10T18:22:36.826Z,100852.34
2022-11-10T18:25:26.486Z,100862.62
2022-11-10T18:28:13.781Z,100865.38
2022-11-10T18:31:04.860Z,100863.03
2022-11-10T18:33:53.112Z,100866.03
2022-11-10T18:36:38.623Z,100865.50
2022-11-10T18:39:24.638Z,100871.00
2022-11-10T18:42:10.273Z,100877.34
2022-11-10T18:44:56.018Z,100877.25
2022-11-10T18:47:41.995Z,100886.41
2022-11-10T18:50:27.758Z,100881.03
2022-11-10T18:53:13.617Z,100897.69
2022-11-10T18:55:59.957Z,100910.78
2022-11-10T18:58:50.198Z,100912.66
2022-11-10T19:01:39.924Z,100911.37
2022-11-10T19:04:25.814Z,100911.78
2022-11-10T19:07:11.939Z,100922.56
2022-11-10T19:09:57.708Z,100927.63
2022-11-10T19:12:43.487Z,100927.88
2022-11-10T19:15:29.020Z,100932.91
2022-11-10T19:18:15.146Z,100929.03
2022-11-10T19:21:08.045Z,100940.34
2022-11-10T19:23:57.060Z,100936.66
2022-11-10T19:26:42.833Z,100939.97
2022-11-10T19:29:28.684Z,100948.31
2022-11-10T19:32:18.607Z,100948.09
2022-11-10T19:35:08.162Z,100944.94
2022-11-10T19:37:54.158Z,100957.44
2022-11-10T19:40:39.930Z,100957.91
2022-11-10T19:43:25.803Z,100963.72
2022-11-10T19:46:15.414Z,100961.25
2022-11-10T19:49:01.488Z,100958.97
2022-11-10T19:51:48.486Z,100953.88
2022-11-10T19:54:34.295Z,100964.03
2022-11-10T19:57:20.236Z,100970.59
2022-11-10T20:00:07.029Z,100966.06
2022-11-10T20:02:52.741Z,100963.78
2022-11-10T20:05:39.862Z,100968.53
2022-11-10T20:08:26.093Z,100967.00
2022-11-10T20:11:17.429Z,100961.41
2022-11-10T20:14:03.841Z,100970.38
2022-11-10T20:16:49.505Z,100964.72
2022-11-10T20:19:40.880Z,100968.81
2022-11-10T20:22:27.132Z,100977.81
2022-11-10T20:25:13.302Z,100973.25
2022-11-10T20:28:01.529Z,100978.03
2022-11-10T20:30:47.404Z,100981.06
2022-11-10T20:33:33.527Z,100977.13
2022-11-10T20:36:22.561Z,100980.78
2022-11-10T20:39:08.392Z,100980.72
2022-11-10T20:41:54.425Z,100982.63
2022-11-10T20:44:40.448Z,100982.19
2022-11-10T20:47:27.908Z,100989.09
2022-11-10T20:50:17.189Z,100995.09
2022-11-10T20:53:05.908Z,101006.37
2022-11-10T20:56:02.025Z,101005.38
2022-11-10T20:58:49.050Z,101014.66
2022-11-10T21:01:35.402Z,101022.25
2022-11-10T21:04:21.574Z,101028.09
2022-11-10T21:07:07.458Z,101033.66
2022-11-10T21:09:53.541Z,101031.75
2022-11-10T21:12:50.976Z,101028.19
2022-11-10T21:15:37.164Z,101026.03
2022-11-10T21:18:24.699Z,101030.81
2022-11-10T21:21:18.654Z,101036.06
2022-11-10T21:24:04.757Z,101035.59
2022-11-10T21:26:50.279Z,101034.44
2022-11-10T21:29:35.988Z,101028.62
2022-11-10T21:32:22.409Z,101029.97
2022-11-10T21:35:08.543Z,101029.44
2022-11-10T21:37:54.186Z,101034.75
2022-11-10T21:40:40.112Z,101036.41
2022-11-10T21:43:26.072Z,101027.19
2022-11-10T21:46:11.926Z,101039.78
2022-11-10T21:48:57.650Z,101038.41
2022-11-10T21:51:43.410Z,101048.38
2022-11-10T21:54:29.347Z,101054.16
2022-11-10T21:57:15.141Z,101041.97
2022-11-10T22:00:00.919Z,101056.03
2022-11-10T22:02:46.652Z,101046.09
2022-11-10T22:05:33.530Z,101061.09
2022-11-10T22:08:21.894Z,101058.56
2022-11-10T22:11:33.521Z,101065.97
2022-11-10T22:14:38.039Z,101064.16
2022-11-10T22:17:42.476Z,101065.13
2022-11-10T22:20:28.454Z,101074.66
2022-11-10T22:23:14.129Z,101072.88
2022-11-10T22:26:00.023Z,101086.44
2022-11-10T22:28:45.668Z,101080.13
2022-11-10T22:31:32.761Z,101074.81
2022-11-10T22:34:19.115Z,101076.44
2022-11-10T22:37:04.974Z,101076.69
2022-11-10T22:40:09.389Z,101074.31
2022-11-10T22:43:13.835Z,101078.06
2022-11-10T22:45:59.576Z,101070.91
2022-11-10T22:48:45.344Z,101066.28
2022-11-10T22:51:31.575Z,101065.56
2022-11-10T22:54:18.220Z,101065.59
2022-11-10T22:57:03.928Z,101065.81
2022-11-10T22:59:49.906Z,101063.50
2022-11-10T23:02:36.809Z,101055.41
2022-11-10T23:05:22.347Z,101061.09
2022-11-10T23:08:08.233Z,101065.72
2022-11-10T23:11:04.306Z,101068.34
2022-11-10T23:13:50.628Z,101061.28
2022-11-10T23:16:36.274Z,101055.00
2022-11-10T23:19:22.147Z,101051.66
2022-11-10T23:22:07.935Z,101060.31
2022-11-10T23:24:57.158Z,101061.25
2022-11-10T23:27:43.290Z,101059.12
2022-11-10T23:30:29.285Z,101062.84
2022-11-10T23:33:14.900Z,101060.97
2022-11-10T23:36:00.804Z,101068.34
2022-11-10T23:38:48.644Z,101074.06
2022-11-10T23:41:34.160Z,101073.19
2022-11-10T23:44:20.697Z,101069.72
2022-11-10T23:47:06.609Z,101062.09
2022-11-10T23:49:52.245Z,101064.34
2022-11-10T23:52:38.092Z,101061.44
2022-11-10T23:55:23.593Z,101072.22
2022-11-10T23:58:09.600Z,101061.09
